Time;durP1;ratioP1;P1;durP2;ratioP2;P2;SDS_P1;SDS_P2;PMS_P1;PMS_P2;Temp;Humidity;BMP_temperature;BMP_pressure;BME280_temperature;BME280_humidity;BME280_pressure;Samples;Min_cycle;Max_cycle;Signal;HPM_P1;HPM_P2
2023/11/21 00:01:08;;;;;;;4.35;2.00;;;;;;;4.58;100.00;97809.50;6101795;19;20025;-75
2023/11/21 00:03:09;;;;;;;2.17;1.95;;;;;;;4.56;100.00;97804.38;6101035;19;20010;-76
2023/11/21 00:05:10;;;;;;;5.70;2.22;;;;;;;4.54;100.00;97816.81;6101668;19;19998;-75
2023/11/21 00:07:11;;;;;;;3.88;2.08;;;;;;;4.50;100.00;97817.53;6098314;19;20018;-75
2023/11/21 00:09:12;;;;;;;3.67;2.20;;;;;;;4.53;100.00;97816.03;6099671;19;20479;-75
2023/11/21 00:11:13;;;;;;;6.10;2.33;;;;;;;4.51;100.00;97821.06;6099391;19;20264;-75
2023/11/21 00:13:13;;;;;;;4.07;2.00;;;;;;;4.46;100.00;97824.06;6098420;19;20011;-75
2023/11/21 00:15:13;;;;;;;3.90;2.53;;;;;;;4.44;100.00;97809.94;6101283;19;20032;-76
2023/11/21 00:17:14;;;;;;;3.58;2.53;;;;;;;4.44;100.00;97815.41;6100552;19;20463;-76
2023/11/21 00:19:14;;;;;;;3.38;2.20;;;;;;;4.47;100.00;97815.53;6099316;19;20013;-75
2023/11/21 00:21:15;;;;;;;3.30;2.20;;;;;;;4.51;100.00;97813.66;6101327;19;20014;-75
2023/11/21 00:23:15;;;;;;;3.10;1.95;;;;;;;4.54;100.00;97806.66;6100308;19;20082;-75
2023/11/21 00:25:17;;;;;;;3.60;2.10;;;;;;;4.55;100.00;97813.75;6102371;19;20010;-75
2023/11/21 00:27:17;;;;;;;2.72;2.17;;;;;;;4.53;100.00;97816.03;6096937;19;20010;-76
2023/11/21 00:29:18;;;;;;;2.60;2.03;;;;;;;4.52;100.00;97817.19;6092901;19;20078;-76
2023/11/21 00:31:18;;;;;;;2.92;2.00;;;;;;;4.49;100.00;97809.69;6090772;19;20269;-75
2023/11/21 00:33:19;;;;;;;6.00;2.33;;;;;;;4.49;100.00;97806.94;6091749;19;20424;-76
2023/11/21 00:35:19;;;;;;;4.70;2.10;;;;;;;4.50;100.00;97803.06;6091837;19;20491;-75
2023/11/21 00:37:20;;;;;;;4.20;2.40;;;;;;;4.46;100.00;97802.94;6091475;19;20003;-75
2023/11/21 00:39:20;;;;;;;3.95;1.90;;;;;;;4.47;100.00;97807.31;6092385;19;19998;-76
2023/11/21 00:41:20;;;;;;;3.10;2.00;;;;;;;4.46;100.00;97813.09;6091700;19;20025;-76
2023/11/21 00:43:21;;;;;;;3.70;2.35;;;;;;;4.43;100.00;97811.09;6091849;19;20002;-76
2023/11/21 00:45:21;;;;;;;4.60;2.80;;;;;;;4.41;100.00;97821.59;6091801;19;20010;-75
2023/11/21 00:47:22;;;;;;;9.77;2.83;;;;;;;4.39;100.00;97821.97;6089342;19;20009;-75
2023/11/21 00:49:22;;;;;;;2.65;2.17;;;;;;;4.40;100.00;97829.03;6089812;19;20357;-75
2023/11/21 00:51:23;;;;;;;4.05;2.35;;;;;;;4.44;100.00;97831.84;6091346;19;19998;-76
2023/11/21 00:53:23;;;;;;;5.38;2.05;;;;;;;4.49;100.00;97835.13;6091718;19;20010;-75
2023/11/21 00:55:25;;;;;;;3.58;2.20;;;;;;;4.55;100.00;97832.94;6091079;19;20021;-76
2023/11/21 00:57:26;;;;;;;3.78;2.13;;;;;;;4.57;100.00;97836.09;6091064;19;20361;-76
2023/11/21 00:59:26;;;;;;;7.40;2.10;;;;;;;4.60;100.00;97829.91;6093098;19;20011;-75
2023/11/21 01:01:27;;;;;;;4.30;2.60;;;;;;;4.60;100.00;97831.84;6092034;19;20565;-76
2023/11/21 01:03:27;;;;;;;2.97;2.00;;;;;;;4.61;100.00;97836.97;6092236;19;20400;-75
2023/11/21 01:05:27;;;;;;;6.53;2.72;;;;;;;4.60;100.00;97831.84;6093343;19;20110;-75
2023/11/21 01:07:28;;;;;;;5.10;2.42;;;;;;;4.58;100.00;97826.72;6090510;19;20010;-75
2023/11/21 01:09:28;;;;;;;3.55;2.65;;;;;;;4.59;100.00;97839.28;6090926;19;20011;-76
2023/11/21 01:11:29;;;;;;;3.55;2.17;;;;;;;4.60;100.00;97829.91;6092593;19;20118;-75
2023/11/21 01:13:29;;;;;;;4.90;2.42;;;;;;;4.64;100.00;97830.00;6091993;19;20015;-76
2023/11/21 01:15:29;;;;;;;4.00;2.15;;;;;;;4.64;100.00;97824.53;6092345;19;20011;-76
2023/11/21 01:17:30;;;;;;;2.95;2.30;;;;;;;4.66;100.00;97833.97;6092008;19;20034;-76
2023/11/21 01:19:30;;;;;;;3.55;2.20;;;;;;;4.70;100.00;97854.03;6091420;19;20006;-76
2023/11/21 01:21:31;;;;;;;3.28;2.25;;;;;;;4.69;100.00;97844.22;6088492;19;20019;-76
2023/11/21 01:23:31;;;;;;;4.47;2.38;;;;;;;4.69;100.00;97848.91;6090918;19;20402;-75
2023/11/21 01:25:32;;;;;;;3.78;2.10;;;;;;;4.71;100.00;97854.81;6090118;19;20605;-76
2023/11/21 01:27:32;;;;;;;3.42;2.13;;;;;;;4.74;100.00;97854.13;6091148;19;20021;-75
2023/11/21 01:29:32;;;;;;;4.25;2.45;;;;;;;4.79;100.00;97853.84;6100435;19;20010;-76
2023/11/21 01:31:33;;;;;;;5.43;2.15;;;;;;;4.82;100.00;97853.16;6098547;19;20027;-76
2023/11/21 01:33:33;;;;;;;5.78;2.72;;;;;;;4.87;100.00;97855.59;6100561;19;20021;-76
2023/11/21 01:35:34;;;;;;;3.88;2.83;;;;;;;4.88;100.00;97857.22;6100254;19;20011;-75
2023/11/21 01:37:34;;;;;;;4.18;2.85;;;;;;;4.90;100.00;97854.91;6098711;19;20002;-75
2023/11/21 01:39:35;;;;;;;3.33;2.63;;;;;;;4.88;100.00;97865.44;6100256;19;20063;-75
2023/11/21 01:41:35;;;;;;;3.65;2.92;;;;;;;4.86;100.00;97867.72;6099215;19;20010;-75
2023/11/21 01:43:35;;;;;;;3.22;2.40;;;;;;;4.81;100.00;97865.25;6099039;19;20448;-75
2023/11/21 01:45:36;;;;;;;4.07;3.08;;;;;;;4.76;100.00;97869.06;6100251;19;20070;-75
2023/11/21 01:47:36;;;;;;;5.75;2.60;;;;;;;4.73;100.00;97867.03;6099099;19;20420;-76
2023/11/21 01:49:37;;;;;;;3.90;2.42;;;;;;;4.73;100.00;97869.78;6100111;19;20298;-76
2023/11/21 01:51:38;;;;;;;3.67;2.70;;;;;;;4.74;100.00;97862.34;6098484;19;20553;-76
2023/11/21 01:53:39;;;;;;;3.47;2.42;;;;;;;4.72;100.00;97868.19;6099621;19;20028;-75
2023/11/21 01:55:41;;;;;;;3.92;2.50;;;;;;;4.72;100.00;97859.19;6099478;19;20003;-76
2023/11/21 01:57:42;;;;;;;3.40;2.28;;;;;;;4.68;100.00;97866.50;6098401;19;20009;-75
2023/11/21 01:59:44;;;;;;;4.53;2.92;;;;;;;4.67;100.00;97873.91;6100167;19;20078;-75
2023/11/21 02:01:46;;;;;;;6.35;2.78;;;;;;;4.64;100.00;97868.38;6099872;19;20006;-75
2023/11/21 02:03:46;;;;;;;5.97;2.63;;;;;;;4.58;100.00;97864.28;6099460;19;20010;-75
2023/11/21 02:05:47;;;;;;;16.33;8.63;;;;;;;4.54;100.00;97863.38;6099889;19;20301;-75
2023/11/21 02:07:47;;;;;;;11.65;6.18;;;;;;;4.54;100.00;97869.66;6095317;19;20006;-75
2023/11/21 02:09:48;;;;;;;14.05;7.10;;;;;;;4.54;100.00;97882.56;6099243;19;20570;-75
2023/11/21 02:11:49;;;;;;;15.88;8.25;;;;;;;4.51;100.00;97878.59;6098869;19;20010;-76
2023/11/21 02:13:50;;;;;;;11.95;6.30;;;;;;;4.51;100.00;97875.84;6098679;19;20020;-75
2023/11/21 02:15:52;;;;;;;9.80;5.10;;;;;;;4.49;100.00;97878.97;6099273;19;20002;-75
2023/11/21 02:17:53;;;;;;;9.60;5.90;;;;;;;4.46;100.00;97876.91;6097379;19;20006;-75
2023/11/21 02:19:54;;;;;;;9.18;4.85;;;;;;;4.45;100.00;97882.75;6096833;19;20446;-75
2023/11/21 02:21:57;;;;;;;8.32;4.82;;;;;;;4.43;100.00;97879.56;6099648;19;20006;-75
2023/11/21 02:23:58;;;;;;;6.88;3.88;;;;;;;4.43;100.00;97874.09;6098424;19;19995;-75
2023/11/21 02:25:59;;;;;;;7.50;4.28;;;;;;;4.42;100.00;97875.25;6098482;19;20358;-75
2023/11/21 02:28:01;;;;;;;12.65;5.30;;;;;;;4.41;100.00;97879.13;6095907;19;20014;-75
2023/11/21 02:30:04;;;;;;;;;;;;;;;4.41;100.00;97871.69;6099605;19;20801;-75
2023/11/21 02:32:05;;;;;;;6.80;4.35;;;;;;;4.40;100.00;97872.84;6097321;19;19907;-75
2023/11/21 02:34:05;;;;;;;9.50;4.07;;;;;;;4.37;100.00;97873.53;6103483;19;19999;-75
2023/11/21 02:36:06;;;;;;;11.13;5.30;;;;;;;4.36;100.00;97877.44;6103811;19;20227;-75
2023/11/21 02:38:06;;;;;;;6.90;4.28;;;;;;;4.39;100.00;97867.75;6102584;19;19995;-75
2023/11/21 02:40:09;;;;;;;6.28;3.63;;;;;;;4.41;100.00;97882.66;6104655;19;20113;-75
2023/11/21 02:42:10;;;;;;;7.20;3.67;;;;;;;4.41;100.00;97877.19;6104044;19;20026;-76
2023/11/21 02:44:10;;;;;;;4.95;3.08;;;;;;;4.38;100.00;97874.34;6101201;19;19999;-75
2023/11/21 02:46:10;;;;;;;5.68;2.63;;;;;;;4.35;100.00;97870.38;6104009;19;20407;-75
2023/11/21 02:48:11;;;;;;;3.88;2.20;;;;;;;4.34;100.00;97870.72;6102301;19;20007;-75
2023/11/21 02:50:12;;;;;;;5.68;2.67;;;;;;;4.31;100.00;97865.97;6104222;19;20034;-75
2023/11/21 02:52:12;;;;;;;4.82;2.75;;;;;;;4.33;100.00;97877.34;6104082;19;20026;-75
2023/11/21 02:54:12;;;;;;;5.50;2.90;;;;;;;4.35;100.00;97870.38;6103074;19;20018;-76
2023/11/21 02:56:13;;;;;;;4.50;2.80;;;;;;;4.38;100.00;97872.38;6104414;19;20018;-75
2023/11/21 02:58:13;;;;;;;3.95;3.10;;;;;;;4.40;100.00;97872.06;6102120;19;19999;-75
2023/11/21 03:00:14;;;;;;;4.13;2.78;;;;;;;4.42;100.00;97873.28;6104694;19;20108;-75
2023/11/21 03:02:15;;;;;;;4.75;2.90;;;;;;;4.40;100.00;97872.06;6103596;19;20009;-75
2023/11/21 03:04:17;;;;;;;4.88;2.85;;;;;;;4.40;100.00;97872.84;6101529;19;20010;-75
2023/11/21 03:06:19;;;;;;;6.25;3.10;;;;;;;4.39;100.00;97871.28;6104134;19;20342;-76
2023/11/21 03:08:19;;;;;;;5.63;3.17;;;;;;;4.40;100.00;97869.31;6102475;19;20470;-76
2023/11/21 03:10:19;;;;;;;5.68;3.15;;;;;;;4.39;100.00;97875.94;6102471;19;20037;-76
2023/11/21 03:12:20;;;;;;;3.30;2.42;;;;;;;4.36;100.00;97868.41;6103448;19;20003;-75
2023/11/21 03:14:20;;;;;;;3.95;2.67;;;;;;;4.32;100.00;97873.81;6103426;19;20090;-76
2023/11/21 03:16:21;;;;;;;5.80;2.60;;;;;;;4.27;100.00;97871.31;6104155;19;20022;-75
2023/11/21 03:18:24;;;;;;;6.75;2.20;;;;;;;4.26;100.00;97879.91;6101764;19;20014;-75
2023/11/21 03:20:25;;;;;;;3.00;2.10;;;;;;;4.23;100.00;97875.94;6103636;19;21012;-75
2023/11/21 03:22:26;;;;;;;4.78;2.78;;;;;;;4.22;100.00;97877.06;6103420;19;20011;-75
2023/11/21 03:24:26;;;;;;;4.55;3.60;;;;;;;4.22;100.00;97877.06;6101644;19;20006;-75
2023/11/21 03:26:27;;;;;;;3.75;2.63;;;;;;;4.20;100.00;97879.34;6103570;19;20007;-75
2023/11/21 03:28:27;;;;;;;5.28;2.40;;;;;;;4.14;100.00;97872.56;6103005;19;20006;-75
2023/11/21 03:30:28;;;;;;;3.70;2.42;;;;;;;4.11;100.00;97881.44;6101642;19;20006;-75
2023/11/21 03:32:28;;;;;;;4.97;2.70;;;;;;;4.10;100.00;97874.38;6103587;19;20033;-75
2023/11/21 03:34:28;;;;;;;4.05;2.85;;;;;;;4.10;100.00;97890.81;6103814;19;20010;-75
2023/11/21 03:36:29;;;;;;;7.93;2.67;;;;;;;4.08;100.00;97890.38;6101934;19;20011;-75
2023/11/21 03:38:29;;;;;;;5.88;3.00;;;;;;;4.07;100.00;97899.75;6102094;19;20011;-75
2023/11/21 03:40:31;;;;;;;4.97;3.45;;;;;;;4.05;100.00;97902.78;6103849;19;20010;-75
2023/11/21 03:42:31;;;;;;;5.85;3.58;;;;;;;4.06;100.00;97903.63;6104265;19;20066;-75
2023/11/21 03:44:32;;;;;;;7.00;3.55;;;;;;;4.08;100.00;97904.84;6101266;19;20010;-75
2023/11/21 03:46:32;;;;;;;6.25;3.25;;;;;;;4.08;100.00;97902.13;6102154;19;20327;-75
2023/11/21 03:48:33;;;;;;;5.93;3.35;;;;;;;4.09;100.00;97900.97;6102807;19;20374;-75
2023/11/21 03:50:33;;;;;;;4.30;3.03;;;;;;;4.04;100.00;97897.69;6100262;19;20054;-75
2023/11/21 03:52:33;;;;;;;3.17;2.72;;;;;;;4.02;100.00;97903.50;6103463;19;20438;-76
2023/11/21 03:54:34;;;;;;;6.75;3.00;;;;;;;3.92;100.00;97904.81;6099235;19;20463;-75
2023/11/21 03:56:34;;;;;;;3.70;2.60;;;;;;;3.87;100.00;97910.50;6098675;19;20010;-75
2023/11/21 03:58:35;;;;;;;3.83;2.50;;;;;;;3.80;100.00;97910.31;6097435;19;20243;-75
2023/11/21 04:00:35;;;;;;;5.47;3.22;;;;;;;3.77;100.00;97911.00;6099897;19;20520;-75
2023/11/21 04:02:35;;;;;;;4.10;2.90;;;;;;;3.78;100.00;97911.81;6101749;19;20342;-75
2023/11/21 04:04:36;;;;;;;4.68;3.00;;;;;;;3.73;100.00;97912.88;6101818;19;20078;-75
2023/11/21 04:06:37;;;;;;;4.03;2.75;;;;;;;3.71;100.00;97919.81;6100017;19;20007;-75
2023/11/21 04:08:38;;;;;;;6.68;2.97;;;;;;;3.64;100.00;97921.22;6100932;19;20011;-75
2023/11/21 04:10:39;;;;;;;6.18;2.92;;;;;;;3.57;100.00;97915.53;6102227;19;20705;-75
2023/11/21 04:12:39;;;;;;;4.53;2.80;;;;;;;3.50;100.00;97926.25;6100899;19;20045;-75
2023/11/21 04:14:40;;;;;;;5.82;3.08;;;;;;;3.43;100.00;97925.22;6101723;19;20006;-75
2023/11/21 04:16:41;;;;;;;6.53;3.63;;;;;;;3.38;100.00;97926.25;6100761;19;20317;-75
2023/11/21 04:18:41;;;;;;;7.85;4.68;;;;;;;3.30;100.00;97929.91;6101413;19;20013;-75
2023/11/21 04:20:41;;;;;;;9.23;4.25;;;;;;;3.27;100.00;97936.06;6099333;19;20597;-75
2023/11/21 04:22:44;;;;;;;6.80;3.17;;;;;;;3.24;100.00;97932.09;6101116;19;20006;-75
2023/11/21 04:24:44;;;;;;;7.57;3.78;;;;;;;3.21;100.00;97927.28;6101961;19;20017;-75
2023/11/21 04:26:45;;;;;;;4.75;3.10;;;;;;;3.22;100.00;97930.81;6098609;19;20082;-76
2023/11/21 04:28:45;;;;;;;5.10;2.92;;;;;;;3.21;100.00;97924.56;6092834;19;20280;-75
2023/11/21 04:30:45;;;;;;;4.35;3.00;;;;;;;3.20;100.00;97924.91;6102237;19;20461;-75
2023/11/21 04:32:46;;;;;;;4.32;2.95;;;;;;;3.16;100.00;97933.00;6101570;19;20015;-75
2023/11/21 04:34:46;;;;;;;7.57;3.03;;;;;;;3.13;100.00;97928.22;6101149;19;20010;-75
2023/11/21 04:36:46;;;;;;;5.05;3.08;;;;;;;3.08;100.00;97944.84;6097445;19;20010;-75
2023/11/21 04:38:47;;;;;;;5.43;3.08;;;;;;;3.02;100.00;97933.34;6101590;19;20074;-75
2023/11/21 04:40:47;;;;;;;5.40;3.42;;;;;;;3.01;100.00;97933.69;6101553;19;20009;-75
2023/11/21 04:42:48;;;;;;;4.20;2.80;;;;;;;2.95;100.00;97933.09;6102114;19;20002;-75
2023/11/21 04:44:49;;;;;;;4.60;2.80;;;;;;;2.92;100.00;97944.72;6101686;19;20014;-75
2023/11/21 04:46:49;;;;;;;4.13;3.00;;;;;;;2.88;100.00;97943.00;6098528;19;20006;-75
2023/11/21 04:48:49;;;;;;;5.75;3.40;;;;;;;2.81;100.00;97940.84;6100414;19;20002;-75
2023/11/21 04:50:50;;;;;;;4.32;2.95;;;;;;;2.77;100.00;97943.47;6101295;19;20039;-75
2023/11/21 04:52:52;;;;;;;5.82;3.40;;;;;;;2.74;100.00;97943.34;6100914;19;20447;-75
2023/11/21 04:54:54;;;;;;;8.70;2.97;;;;;;;2.73;100.00;97944.47;6100553;19;19998;-75
2023/11/21 04:56:54;;;;;;;4.53;2.90;;;;;;;2.66;100.00;97949.72;6098902;19;20010;-75
2023/11/21 04:58:55;;;;;;;2.88;2.28;;;;;;;2.58;100.00;97954.13;6098019;19;20002;-75
2023/11/21 05:00:55;;;;;;;4.40;3.03;;;;;;;2.49;100.00;97953.44;6101410;19;20006;-75
2023/11/21 05:02:55;;;;;;;4.53;2.83;;;;;;;2.40;100.00;97958.97;6099934;19;20226;-75
2023/11/21 05:04:56;;;;;;;5.20;2.83;;;;;;;2.35;100.00;97956.47;6100783;19;20073;-75
2023/11/21 05:06:57;;;;;;;4.63;3.22;;;;;;;2.29;100.00;97951.53;6094355;19;20023;-75
2023/11/21 05:08:58;;;;;;;5.15;2.78;;;;;;;2.19;100.00;97953.56;6100226;19;20471;-75
2023/11/21 05:10:59;;;;;;;3.20;2.63;;;;;;;2.13;100.00;97960.34;6101098;19;20010;-75
2023/11/21 05:12:59;;;;;;;8.48;2.80;;;;;;;2.07;100.00;97960.88;6100051;19;20039;-75
2023/11/21 05:14:59;;;;;;;6.25;2.35;;;;;;;2.02;100.00;97959.19;6101441;19;20010;-75
2023/11/21 05:17:01;;;;;;;3.33;2.00;;;;;;;1.95;100.00;97956.19;6099513;19;20359;-75
2023/11/21 05:19:01;;;;;;;3.90;2.35;;;;;;;1.91;100.00;97971.63;6101127;19;20027;-75
2023/11/21 05:21:02;;;;;;;6.00;2.65;;;;;;;1.84;100.00;97972.16;6100885;19;20912;-75
2023/11/21 05:23:02;;;;;;;30.70;4.40;;;;;;;1.74;100.00;97969.84;6099534;19;20010;-75
2023/11/21 05:25:07;;;;;;;10.70;3.17;;;;;;;1.70;100.00;97963.44;6099148;19;20011;-74
2023/11/21 05:27:09;;;;;;;22.27;3.88;;;;;;;1.61;100.00;97963.50;6097117;19;20335;-75
2023/11/21 05:29:10;;;;;;;9.32;3.10;;;;;;;1.63;100.00;97963.97;6091320;19;20492;-75
2023/11/21 05:31:11;;;;;;;5.43;2.80;;;;;;;1.60;100.00;97969.28;6089344;19;20257;-75
2023/11/21 05:33:11;;;;;;;3.47;2.28;;;;;;;1.62;100.00;97964.28;6088083;19;20613;-75
2023/11/21 05:35:15;;;;;;;10.43;7.55;;;;;;;1.62;100.00;97958.84;6091238;19;20035;-75
2023/11/21 05:37:17;;;;;;;5.82;4.60;;;;;;;1.62;100.00;97969.75;6089103;19;20007;-75
2023/11/21 05:39:18;;;;;;;12.18;6.38;;;;;;;1.58;100.00;97969.63;6090876;19;20007;-76
2023/11/21 05:41:18;;;;;;;6.75;3.67;;;;;;;1.55;100.00;97969.47;6090868;19;20010;-75
2023/11/21 05:43:19;;;;;;;5.78;3.47;;;;;;;1.53;100.00;97966.28;6089487;19;20010;-75
2023/11/21 05:45:19;;;;;;;5.15;3.83;;;;;;;1.62;100.00;97972.47;6089950;19;20026;-75
2023/11/21 05:47:21;;;;;;;5.13;3.25;;;;;;;1.62;100.00;97983.38;6087651;19;20037;-75
2023/11/21 05:49:22;;;;;;;4.70;3.60;;;;;;;1.62;100.00;97988.84;6088210;19;20020;-75
2023/11/21 05:51:22;;;;;;;10.27;6.45;;;;;;;1.59;100.00;97986.78;6083336;19;20422;-75
2023/11/21 05:53:22;;;;;;;8.65;5.60;;;;;;;1.61;100.00;97987.25;6082188;19;20454;-75
2023/11/21 05:55:25;;;;;;;10.00;5.70;;;;;;;1.61;100.00;97988.03;6089508;19;20394;-75
2023/11/21 05:57:25;;;;;;;6.13;4.55;;;;;;;1.68;100.00;97984.78;6087564;19;20041;-75
2023/11/21 05:59:26;;;;;;;9.02;5.65;;;;;;;1.64;100.00;97994.75;6089477;19;20338;-75
2023/11/21 06:01:28;;;;;;;6.32;4.60;;;;;;;1.53;100.00;97996.28;6088368;19;20094;-75
2023/11/21 06:03:29;;;;;;;7.68;3.58;;;;;;;1.42;100.00;97998.59;6090034;19;20013;-75
2023/11/21 06:05:31;;;;;;;6.70;3.40;;;;;;;1.33;100.00;98000.56;6089689;19;20367;-75
2023/11/21 06:07:32;;;;;;;;;;;;;;;1.28;100.00;98006.19;6089138;19;20011;-75
2023/11/21 06:09:32;;;;;;;5.35;2.97;;;;;;;1.24;100.00;97997.06;6096476;19;20353;-75
2023/11/21 06:11:33;;;;;;;5.97;3.58;;;;;;;1.23;100.00;98017.28;6095353;19;20267;-75
2023/11/21 06:13:33;;;;;;;6.18;3.47;;;;;;;1.26;100.00;98016.63;6093623;19;20097;-75
2023/11/21 06:15:34;;;;;;;6.57;4.05;;;;;;;1.30;100.00;98015.63;6095279;19;20357;-75
2023/11/21 06:17:39;;;;;;;9.18;4.68;;;;;;;1.42;100.00;98025.84;6094201;19;20349;-75
2023/11/21 06:19:39;;;;;;;13.85;5.45;;;;;;;1.58;100.00;98029.63;6096380;19;20038;-75
2023/11/21 06:21:40;;;;;;;12.15;5.60;;;;;;;1.72;100.00;98023.91;6095375;19;20014;-75
2023/11/21 06:23:41;;;;;;;12.85;6.43;;;;;;;2.00;100.00;98040.56;6094104;19;20011;-75
2023/11/21 06:25:41;;;;;;;14.57;6.05;;;;;;;2.15;100.00;98033.69;6096047;19;20011;-75
2023/11/21 06:27:44;;;;;;;18.38;5.53;;;;;;;2.36;100.00;98033.69;6093189;19;20014;-75
2023/11/21 06:29:44;;;;;;;;;;;;;;;2.45;100.00;98042.59;6104610;19;19999;-75
2023/11/21 06:31:46;;;;;;;27.23;7.53;;;;;;;2.52;100.00;98051.06;6101370;19;19962;-75
2023/11/21 06:33:46;;;;;;;35.03;8.65;;;;;;;2.57;100.00;98056.31;6103409;19;19995;-75
2023/11/21 06:35:46;;;;;;;23.48;7.55;;;;;;;2.65;100.00;98058.19;6103141;19;20026;-74
2023/11/21 06:37:47;;;;;;;30.38;9.40;;;;;;;2.71;100.00;98051.34;6100927;19;20324;-75
2023/11/21 06:39:48;;;;;;;35.53;14.82;;;;;;;2.73;100.00;98057.28;6103590;19;20003;-75
2023/11/21 06:41:51;;;;;;;18.45;11.07;;;;;;;2.79;100.00;98060.59;6103813;19;20518;-75
2023/11/21 06:43:52;;;;;;;15.85;7.13;;;;;;;2.78;100.00;98059.78;6102161;19;20003;-75
2023/11/21 06:45:54;;;;;;;12.30;5.80;;;;;;;2.70;100.00;98057.16;6103457;19;20062;-74
2023/11/21 06:47:54;;;;;;;14.63;5.93;;;;;;;2.68;100.00;98053.97;6102218;19;20003;-74
2023/11/21 06:49:55;;;;;;;10.88;6.80;;;;;;;2.61;100.00;98050.97;6103406;19;19998;-75
2023/11/21 06:51:55;;;;;;;9.68;5.38;;;;;;;2.57;100.00;98053.59;6103675;19;20010;-75
2023/11/21 06:53:56;;;;;;;15.95;6.28;;;;;;;2.52;100.00;98046.41;6103492;19;20467;-75
2023/11/21 06:55:56;;;;;;;7.30;4.60;;;;;;;2.50;100.00;98053.34;6104258;19;20010;-75
2023/11/21 06:57:57;;;;;;;7.90;4.80;;;;;;;2.48;100.00;98058.31;6102208;19;20011;-74
2023/11/21 06:59:58;;;;;;;11.05;6.68;;;;;;;2.48;100.00;98059.13;6103030;19;20074;-75
2023/11/21 07:01:58;;;;;;;11.82;6.93;;;;;;;2.47;100.00;98062.97;6102050;19;20018;-74
2023/11/21 07:03:59;;;;;;;18.20;8.63;;;;;;;2.48;100.00;98064.59;6102540;19;20006;-74
2023/11/21 07:05:59;;;;;;;10.77;6.30;;;;;;;2.51;100.00;98071.31;6103085;19;20006;-75
2023/11/21 07:08:04;;;;;;;11.27;6.85;;;;;;;2.57;100.00;98075.44;6102414;19;20254;-75
2023/11/21 07:10:05;;;;;;;10.23;5.93;;;;;;;2.63;100.00;98079.53;6102709;19;20007;-75
2023/11/21 07:12:07;;;;;;;11.98;6.38;;;;;;;2.67;100.00;98080.47;6100563;19;20017;-75
2023/11/21 07:14:08;;;;;;;12.75;6.70;;;;;;;2.72;100.00;98085.72;6101991;19;20021;-74
2023/11/21 07:16:10;;;;;;;9.30;6.03;;;;;;;2.76;100.00;98089.38;6098086;19;20382;-75
2023/11/21 07:18:11;;;;;;;10.35;5.53;;;;;;;2.81;100.00;98082.91;6096234;19;20347;-75
2023/11/21 07:20:12;;;;;;;9.68;5.00;;;;;;;2.85;100.00;98088.50;6098930;19;20722;-75
2023/11/21 07:22:13;;;;;;;11.13;5.50;;;;;;;2.87;100.00;98088.97;6103541;19;20007;-75
2023/11/21 07:24:14;;;;;;;10.03;5.17;;;;;;;2.89;100.00;98087.47;6101705;19;20003;-75
2023/11/21 07:26:14;;;;;;;10.82;4.85;;;;;;;2.94;100.00;98083.75;6103238;19;20005;-75
2023/11/21 07:28:15;;;;;;;16.20;5.72;;;;;;;2.97;100.00;98091.25;6101593;19;20007;-74
2023/11/21 07:30:15;;;;;;;13.23;6.15;;;;;;;2.99;100.00;98091.75;6099199;19;20093;-75
2023/11/21 07:32:16;;;;;;;23.23;7.45;;;;;;;3.04;100.00;98097.78;6098570;19;20011;-75
2023/11/21 07:34:16;;;;;;;17.73;7.80;;;;;;;3.09;100.00;98100.31;6101522;19;20070;-75
2023/11/21 07:36:23;;;;;;;13.00;6.47;;;;;;;3.12;100.00;98104.28;6099224;19;20006;-75
2023/11/21 07:38:23;;;;;;;27.08;5.75;;;;;;;3.10;100.00;98104.63;6099914;19;20006;-75
2023/11/21 07:40:23;;;;;;;12.88;5.55;;;;;;;3.15;100.00;98111.03;6103472;19;20015;-75
2023/11/21 07:42:26;;;;;;;14.32;5.70;;;;;;;3.16;100.00;98112.63;6100001;19;20579;-75
2023/11/21 07:44:26;;;;;;;12.02;5.80;;;;;;;3.21;100.00;98110.47;6102509;19;20517;-75
2023/11/21 07:46:27;;;;;;;11.57;5.32;;;;;;;3.25;100.00;98119.59;6096130;19;20038;-75
2023/11/21 07:48:27;;;;;;;14.32;6.57;;;;;;;3.30;100.00;98124.84;6097451;19;20466;-75
2023/11/21 07:50:27;;;;;;;17.48;7.70;;;;;;;3.33;100.00;98115.97;6097025;19;20070;-74
2023/11/21 07:52:28;;;;;;;11.20;6.30;;;;;;;3.42;100.00;98120.53;6102096;19;20010;-74
2023/11/21 07:54:28;;;;;;;15.13;6.63;;;;;;;3.46;100.00;98127.72;6103099;19;20456;-75
2023/11/21 07:56:29;;;;;;;10.80;5.55;;;;;;;3.62;100.00;98128.66;6101333;19;20392;-75
2023/11/21 07:58:29;;;;;;;14.57;4.97;;;;;;;3.70;100.00;98129.69;6101165;19;20022;-75
2023/11/21 08:00:30;;;;;;;11.07;5.07;;;;;;;3.73;100.00;98136.44;6102262;19;20010;-75
2023/11/21 08:02:31;;;;;;;8.38;5.15;;;;;;;3.77;100.00;98135.38;6101525;19;20006;-75
2023/11/21 08:04:32;;;;;;;12.88;6.10;;;;;;;3.80;100.00;98151.13;6099306;19;20021;-74
2023/11/21 08:06:32;;;;;;;7.72;4.65;;;;;;;3.80;100.00;98136.63;6100606;19;20634;-75
2023/11/21 08:08:33;;;;;;;9.55;4.57;;;;;;;3.78;100.00;98139.72;6102071;19;20010;-75
2023/11/21 08:10:33;;;;;;;9.93;4.47;;;;;;;3.79;100.00;98140.50;6101463;19;20325;-75
2023/11/21 08:12:34;;;;;;;8.90;4.53;;;;;;;3.78;100.00;98145.19;6101861;19;20027;-75
2023/11/21 08:14:38;;;;;;;10.52;4.35;;;;;;;3.82;100.00;98140.66;6101534;19;20005;-75
2023/11/21 08:16:40;;;;;;;12.95;7.30;;;;;;;3.82;100.00;98146.13;6099906;19;20006;-75
2023/11/21 08:18:41;;;;;;;8.50;4.70;;;;;;;3.82;100.00;98137.91;6100164;19;20003;-74
2023/11/21 08:20:41;;;;;;;9.50;5.70;;;;;;;3.85;100.00;98137.22;6101533;19;20014;-75
2023/11/21 08:22:43;;;;;;;11.77;6.28;;;;;;;3.94;100.00;98145.31;6101548;19;20738;-76
2023/11/21 08:24:44;;;;;;;10.88;6.47;;;;;;;3.99;100.00;98136.88;6101418;19;20007;-75
2023/11/21 08:26:44;;;;;;;11.35;5.60;;;;;;;4.10;100.00;98139.94;6099626;19;20017;-74
2023/11/21 08:28:45;;;;;;;18.75;7.82;;;;;;;4.14;100.00;98149.09;6100636;19;20018;-75
2023/11/21 08:30:45;;;;;;;37.08;13.38;;;;;;;4.15;100.00;98150.69;6100993;19;20011;-74
2023/11/21 08:32:46;;;;;;;21.17;7.45;;;;;;;4.20;100.00;98144.97;6100985;19;20021;-75
2023/11/21 08:34:50;;;;;;;11.80;5.60;;;;;;;4.22;100.00;98150.91;6101405;19;20037;-75
2023/11/21 08:36:51;;;;;;;5.93;3.85;;;;;;;4.23;100.00;98149.75;6099142;19;20027;-75
2023/11/21 08:38:54;;;;;;;7.85;4.95;;;;;;;4.26;100.00;98151.81;6099255;19;20007;-75
2023/11/21 08:40:54;;;;;;;10.45;5.20;;;;;;;4.30;100.00;98151.91;6099721;19;20006;-75
2023/11/21 08:42:55;;;;;;;9.35;6.60;;;;;;;4.37;100.00;98161.13;6100514;19;20038;-75
2023/11/21 08:44:58;;;;;;;12.27;7.85;;;;;;;4.39;100.00;98163.56;6100977;19;20025;-75
2023/11/21 08:46:58;;;;;;;9.48;6.25;;;;;;;4.39;100.00;98160.81;6099466;19;20737;-75
2023/11/21 08:49:01;;;;;;;8.35;5.47;;;;;;;4.40;100.00;98162.41;6100816;19;20011;-75
2023/11/21 08:51:01;;;;;;;;;;;;;;;4.42;100.00;98169.13;6100607;19;20014;-75
2023/11/21 08:53:02;;;;;;;7.97;4.60;;;;;;;4.44;100.00;98168.78;6099604;19;19915;-75
2023/11/21 08:55:07;;;;;;;9.25;4.95;;;;;;;4.47;100.00;98166.16;6097263;19;20006;-74
2023/11/21 08:57:08;;;;;;;7.20;4.43;;;;;;;4.47;100.00;98163.44;6095100;19;20019;-74
2023/11/21 08:59:09;;;;;;;6.65;3.78;;;;;;;4.50;100.00;98164.66;6099843;19;20010;-75
2023/11/21 09:01:09;;;;;;;12.98;4.88;;;;;;;4.56;100.00;98170.72;6101235;19;20086;-75
2023/11/21 09:03:10;;;;;;;9.18;4.57;;;;;;;4.63;100.00;98177.19;6100469;19;20003;-75
2023/11/21 09:05:11;;;;;;;12.35;5.32;;;;;;;4.65;100.00;98185.06;6100187;19;20343;-75
2023/11/21 09:07:11;;;;;;;9.70;4.97;;;;;;;4.69;100.00;98177.75;6099113;19;20018;-75
2023/11/21 09:09:11;;;;;;;6.97;4.45;;;;;;;4.75;100.00;98177.16;6097262;19;20003;-75
2023/11/21 09:11:12;;;;;;;8.80;5.10;;;;;;;4.82;100.00;98184.81;6100896;19;20074;-74
2023/11/21 09:13:12;;;;;;;6.90;3.95;;;;;;;4.84;100.00;98182.50;6100617;19;20502;-75
2023/11/21 09:15:14;;;;;;;9.02;5.40;;;;;;;4.86;100.00;98188.44;6101241;19;20015;-74
2023/11/21 09:17:15;;;;;;;5.65;3.85;;;;;;;4.93;100.00;98199.59;6099681;19;20077;-75
2023/11/21 09:19:15;;;;;;;9.25;5.93;;;;;;;4.94;100.00;98195.72;6100547;19;20483;-75
2023/11/21 09:21:15;;;;;;;11.27;5.15;;;;;;;4.98;100.00;98193.09;6100507;19;20494;-75
2023/11/21 09:23:16;;;;;;;8.32;4.57;;;;;;;5.01;100.00;98204.16;6101188;19;20066;-75
2023/11/21 09:25:16;;;;;;;10.57;4.38;;;;;;;5.03;100.00;98212.81;6098962;19;20014;-75
2023/11/21 09:27:17;;;;;;;9.85;5.22;;;;;;;5.00;100.00;98207.25;6083848;19;20006;-75